createdAt,value
2022-08-24T00:01:10.730Z,3.63
2022-08-24T00:03:39.327Z,3.63
2022-08-24T00:06:08.330Z,4.40
2022-08-24T00:08:35.842Z,5.33
2022-08-24T00:11:03.004Z,5.87
2022-08-24T00:13:29.638Z,7.23
2022-08-24T00:16:00.024Z,3.30
2022-08-24T00:18:27.446Z,3.53
2022-08-24T00:20:54.555Z,3.63
2022-08-24T00:23:21.547Z,4.70
2022-08-24T00:25:48.182Z,4.57
2022-08-24T00:28:15.351Z,2.73
2022-08-24T00:30:42.259Z,5.13
2022-08-24T00:33:08.983Z,4.17
2022-08-24T00:35:36.344Z,4.80
2022-08-24T00:38:03.263Z,5.00
2022-08-24T00:40:40.655Z,4.87
2022-08-24T00:43:09.070Z,4.50
2022-08-24T00:45:43.982Z,7.20
2022-08-24T00:48:27.256Z,4.97
2022-08-24T00:51:08.670Z,3.57
2022-08-24T00:53:45.596Z,5.30
2022-08-24T00:56:17.489Z,4.63
2022-08-24T00:58:52.754Z,3.50
2022-08-24T01:01:25.879Z,4.97
2022-08-24T01:03:56.860Z,5.93
2022-08-24T01:06:24.351Z,7.90
2022-08-24T01:08:56.265Z,5.53
2022-08-24T01:11:26.372Z,5.50
2022-08-24T01:13:53.856Z,3.63
2022-08-24T01:16:41.643Z,6.97
2022-08-24T01:19:28.871Z,4.50
2022-08-24T01:22:32.807Z,3.43
2022-08-24T01:25:00.510Z,3.90
2022-08-24T01:27:28.320Z,4.53
2022-08-24T01:29:55.927Z,4.83
2022-08-24T01:32:27.867Z,5.03
2022-08-24T01:34:56.236Z,5.10
2022-08-24T01:37:23.366Z,4.37
2022-08-24T01:39:53.794Z,6.73
2022-08-24T01:42:20.492Z,3.67
2022-08-24T01:44:48.050Z,5.73
2022-08-24T01:47:16.839Z,3.90
2022-08-24T01:49:47.008Z,5.53
2022-08-24T01:52:18.965Z,3.97
2022-08-24T01:54:45.783Z,5.67
2022-08-24T01:57:16.059Z,3.63
2022-08-24T01:59:43.155Z,4.80
2022-08-24T02:02:17.610Z,8.03
2022-08-24T02:04:44.426Z,7.93
2022-08-24T02:07:11.232Z,6.40
2022-08-24T02:09:38.758Z,6.17
2022-08-24T02:12:06.638Z,7.37
2022-08-24T02:14:34.239Z,8.37
2022-08-24T02:17:02.750Z,6.27
2022-08-24T02:19:29.351Z,7.33
2022-08-24T02:21:56.027Z,6.40
2022-08-24T02:24:22.680Z,7.30
2022-08-24T02:26:49.325Z,7.67
2022-08-24T02:29:16.330Z,13.03
2022-08-24T02:31:43.304Z,13.00
2022-08-24T02:34:09.975Z,10.17
2022-08-24T02:36:36.844Z,9.80
2022-08-24T02:39:04.425Z,13.83
2022-08-24T02:41:31.289Z,12.47
2022-08-24T02:43:58.142Z,10.13
2022-08-24T02:46:27.655Z,15.17
2022-08-24T02:49:10.158Z,15.30
2022-08-24T02:51:43.932Z,12.70
2022-08-24T02:54:12.142Z,12.80
2022-08-24T02:56:38.733Z,13.70
2022-08-24T02:59:05.318Z,10.00
2022-08-24T03:01:31.998Z,10.80
2022-08-24T03:03:58.965Z,16.80
2022-08-24T03:06:25.618Z,17.63
2022-08-24T03:08:56.417Z,15.97
2022-08-24T03:11:27.639Z,12.67
2022-08-24T03:13:56.028Z,15.10
2022-08-24T03:16:22.912Z,14.43
2022-08-24T03:18:49.600Z,12.30
2022-08-24T03:21:16.251Z,11.43
2022-08-24T03:23:43.200Z,12.17
2022-08-24T03:26:10.062Z,12.50
2022-08-24T03:28:36.720Z,12.60
2022-08-24T03:31:03.678Z,16.37
2022-08-24T03:33:30.326Z,15.07
2022-08-24T03:35:57.148Z,13.80
2022-08-24T03:38:24.157Z,11.37
2022-08-24T03:40:50.945Z,14.50
2022-08-24T03:43:36.554Z,11.70
2022-08-24T03:46:07.530Z,12.40
2022-08-24T03:48:34.337Z,12.97
2022-08-24T03:51:01.278Z,10.53
2022-08-24T03:53:27.870Z,12.73
2022-08-24T03:55:54.446Z,12.50
2022-08-24T03:58:21.058Z,12.93
2022-08-24T04:00:47.684Z,10.03
2022-08-24T04:03:14.306Z,14.07
2022-08-24T04:05:42.318Z,10.27
2022-08-24T04:08:09.864Z,10.37
2022-08-24T04:10:38.146Z,12.87
2022-08-24T04:13:04.889Z,12.80
2022-08-24T04:15:32.103Z,11.17
2022-08-24T04:17:58.799Z,9.90
2022-08-24T04:20:25.840Z,7.93
2022-08-24T04:22:53.612Z,10.13
2022-08-24T04:25:24.318Z,8.97
2022-08-24T04:27:51.830Z,9.47
2022-08-24T04:30:18.528Z,10.30
2022-08-24T04:32:45.349Z,7.87
2022-08-24T04:35:12.951Z,8.23
2022-08-24T04:37:39.623Z,10.07
2022-08-24T04:40:08.161Z,7.17
2022-08-24T04:42:35.492Z,7.10
2022-08-24T04:45:04.053Z,7.57
2022-08-24T04:47:30.690Z,8.30
2022-08-24T04:49:57.315Z,7.00
2022-08-24T04:52:24.152Z,9.10
2022-08-24T04:54:50.741Z,10.03
2022-08-24T04:57:18.535Z,8.13
2022-08-24T04:59:49.922Z,7.10
2022-08-24T05:02:16.573Z,6.97
2022-08-24T05:04:43.234Z,8.97
2022-08-24T05:07:09.834Z,9.33
2022-08-24T05:09:36.451Z,7.97
2022-08-24T05:12:03.543Z,8.33
2022-08-24T05:14:30.394Z,7.50
2022-08-24T05:16:57.016Z,12.90
2022-08-24T05:19:23.933Z,8.27
2022-08-24T05:21:50.915Z,10.17
2022-08-24T05:24:19.429Z,10.27
2022-08-24T05:26:46.798Z,10.27
2022-08-24T05:29:14.549Z,12.83
2022-08-24T05:31:44.758Z,13.40
2022-08-24T05:34:12.040Z,11.53
2022-08-24T05:36:39.751Z,13.57
2022-08-24T05:39:12.665Z,11.27
2022-08-24T05:41:44.177Z,13.47
2022-08-24T05:44:12.522Z,14.77
2022-08-24T05:46:39.227Z,11.10
2022-08-24T05:49:06.118Z,12.13
2022-08-24T05:51:33.248Z,18.60
2022-08-24T05:54:00.668Z,12.97
2022-08-24T05:56:31.873Z,9.80
2022-08-24T05:58:59.225Z,16.87
2022-08-24T06:01:27.016Z,13.57
2022-08-24T06:03:55.389Z,15.43
2022-08-24T06:06:23.457Z,15.03
2022-08-24T06:08:52.936Z,16.23
2022-08-24T06:11:30.274Z,17.13
2022-08-24T06:14:02.492Z,10.67
2022-08-24T06:16:39.084Z,15.80
2022-08-24T06:19:06.927Z,13.90
2022-08-24T06:21:33.844Z,18.20
2022-08-24T06:24:00.926Z,17.47
2022-08-24T06:26:49.879Z,17.70
2022-08-24T06:29:17.751Z,20.37
2022-08-24T06:31:46.960Z,16.60
2022-08-24T06:34:16.111Z,16.63
2022-08-24T06:36:42.735Z,13.53
2022-08-24T06:39:10.289Z,15.13
2022-08-24T06:41:40.378Z,13.00
2022-08-24T06:44:07.727Z,9.50
2022-08-24T06:46:36.458Z,11.63
2022-08-24T06:49:03.670Z,10.60
2022-08-24T06:51:31.733Z,15.03
2022-08-24T06:53:58.702Z,17.80
2022-08-24T06:56:25.322Z,16.33
2022-08-24T06:58:52.036Z,21.77
2022-08-24T07:01:24.625Z,22.07
2022-08-24T07:03:51.806Z,20.27
2022-08-24T07:06:19.021Z,20.83
2022-08-24T07:08:45.803Z,19.40
2022-08-24T07:11:14.689Z,17.23
2022-08-24T07:13:41.929Z,18.27
2022-08-24T07:16:10.069Z,16.10
2022-08-24T07:18:37.247Z,16.00
2022-08-24T07:21:04.878Z,15.30
2022-08-24T07:23:42.248Z,16.20
2022-08-24T07:26:18.844Z,12.60
2022-08-24T07:28:49.910Z,12.27
2022-08-24T07:31:16.570Z,13.93
2022-08-24T07:33:43.290Z,19.33
2022-08-24T07:36:16.938Z,14.33
2022-08-24T07:38:49.117Z,13.00
2022-08-24T07:41:38.261Z,14.83
2022-08-24T07:44:02.426Z,14.43
2022-08-24T07:46:29.112Z,13.30
2022-08-24T07:49:05.113Z,12.13
2022-08-24T07:51:46.613Z,11.43
2022-08-24T07:54:13.690Z,13.93
2022-08-24T07:56:41.058Z,12.23
2022-08-24T07:59:12.435Z,11.57
2022-08-24T08:01:41.435Z,12.60
2022-08-24T08:04:08.869Z,13.23
2022-08-24T08:06:36.378Z,13.07
2022-08-24T08:09:05.077Z,12.10
2022-08-24T08:11:32.125Z,17.13
2022-08-24T08:13:58.819Z,12.43
2022-08-24T08:16:26.199Z,11.17
2022-08-24T08:19:09.219Z,13.20
2022-08-24T08:22:00.790Z,12.10
2022-08-24T08:24:27.783Z,13.93
2022-08-24T08:26:54.758Z,17.43
2022-08-24T08:29:21.337Z,11.57
2022-08-24T08:31:48.035Z,13.17
2022-08-24T08:34:15.010Z,14.10
2022-08-24T08:36:41.891Z,12.90
2022-08-24T08:39:11.142Z,11.27
2022-08-24T08:42:06.153Z,9.50
2022-08-24T08:44:45.845Z,10.80
2022-08-24T08:47:49.818Z,9.27
2022-08-24T08:50:29.038Z,8.80
2022-08-24T08:53:13.720Z,10.50
2022-08-24T08:55:48.382Z,9.03
2022-08-24T08:58:59.531Z,11.03
2022-08-24T09:02:04.583Z,8.97
2022-08-24T09:05:09.757Z,13.53
2022-08-24T09:08:04.145Z,10.23
2022-08-24T09:10:54.586Z,10.03
2022-08-24T09:14:00.880Z,13.67
2022-08-24T09:16:43.531Z,9.40
2022-08-24T09:19:34.576Z,12.10
2022-08-24T09:22:19.296Z,14.27
2022-08-24T09:24:54.965Z,11.20
2022-08-24T09:27:46.206Z,10.03
2022-08-24T09:30:23.745Z,11.50
2022-08-24T09:33:08.936Z,15.00
2022-08-24T09:36:03.811Z,13.43
2022-08-24T09:39:17.494Z,14.20
2022-08-24T09:41:44.352Z,16.50
2022-08-24T09:44:35.629Z,15.37
2022-08-24T09:47:18.709Z,12.63
2022-08-24T09:50:24.526Z,15.90
2022-08-24T09:53:08.085Z,15.53
2022-08-24T09:55:58.719Z,15.70
2022-08-24T09:58:44.808Z,14.30
2022-08-24T10:01:32.695Z,15.13
2022-08-24T10:04:28.167Z,14.60
2022-08-24T10:07:14.709Z,12.27
2022-08-24T10:10:07.677Z,15.83
2022-08-24T10:13:04.205Z,15.97
2022-08-24T10:15:42.686Z,13.43
2022-08-24T10:18:35.727Z,12.53
2022-08-24T10:21:26.241Z,11.73
2022-08-24T10:24:13.232Z,10.90
2022-08-24T10:27:06.312Z,9.20
2022-08-24T10:30:03.521Z,12.20
2022-08-24T10:32:45.761Z,12.33
2022-08-24T10:35:48.651Z,15.17
2022-08-24T10:38:59.000Z,10.70
2022-08-24T10:41:57.739Z,12.67
2022-08-24T10:44:42.848Z,10.77
2022-08-24T10:47:30.835Z,12.57
2022-08-24T10:50:32.810Z,14.33
2022-08-24T10:53:23.923Z,11.40
2022-08-24T10:56:08.211Z,12.23
2022-08-24T10:58:57.965Z,10.00
2022-08-24T11:01:34.630Z,8.63
2022-08-24T11:04:06.885Z,9.00
2022-08-24T11:07:02.417Z,10.23
2022-08-24T11:09:53.132Z,10.67
2022-08-24T11:12:33.664Z,9.97
2022-08-24T11:15:04.058Z,9.23
2022-08-24T11:17:32.469Z,9.57
2022-08-24T11:19:59.528Z,8.37
2022-08-24T11:22:31.073Z,7.77
2022-08-24T11:25:07.291Z,7.63
2022-08-24T11:27:38.327Z,10.57
2022-08-24T11:30:26.611Z,9.20
2022-08-24T11:32:59.889Z,9.13
2022-08-24T11:35:33.199Z,7.63
2022-08-24T11:38:19.670Z,6.70
2022-08-24T11:41:13.121Z,7.17
2022-08-24T11:44:09.791Z,6.73
2022-08-24T11:46:48.646Z,7.57
2022-08-24T11:49:42.505Z,10.70
2022-08-24T11:52:53.009Z,9.37
2022-08-24T11:55:46.954Z,11.27
2022-08-24T11:58:40.179Z,7.70
2022-08-24T12:01:20.310Z,7.73
2022-08-24T12:04:09.295Z,6.63
2022-08-24T12:07:07.178Z,8.27
2022-08-24T12:09:53.198Z,8.17
2022-08-24T12:12:33.717Z,8.47
2022-08-24T14:37:05.864Z,7.65
2022-08-24T14:39:58.170Z,10.13
2022-08-24T14:43:06.140Z,9.90
2022-08-24T14:45:48.233Z,10.75
2022-08-24T14:48:48.415Z,9.90
2022-08-24T14:51:45.918Z,7.28
2022-08-24T14:54:57.645Z,7.47
2022-08-24T14:57:36.104Z,7.38
2022-08-24T15:00:07.193Z,7.55
2022-08-24T15:03:01.769Z,6.55
2022-08-24T15:05:34.853Z,7.82
2022-08-24T15:08:06.216Z,6.95
2022-08-24T15:10:58.834Z,7.93
2022-08-24T15:13:46.907Z,5.65
2022-08-24T15:16:21.067Z,8.35
2022-08-24T15:19:07.602Z,8.52
2022-08-24T15:21:40.261Z,6.82
2022-08-24T15:24:33.875Z,9.50
2022-08-24T15:27:24.505Z,6.07
2022-08-24T15:30:00.596Z,5.95
2022-08-24T15:32:44.882Z,5.35
2022-08-24T15:35:31.917Z,5.82
2022-08-24T15:38:15.945Z,11.02
2022-08-24T15:40:46.301Z,5.13
2022-08-24T15:43:13.790Z,6.15
2022-08-24T15:45:51.254Z,5.50
2022-08-24T15:48:21.549Z,4.93
2022-08-24T15:50:48.975Z,4.68
2022-08-24T15:53:30.924Z,7.00
2022-08-24T15:56:19.834Z,7.35
2022-08-24T15:58:47.442Z,6.00
2022-08-24T16:01:32.568Z,4.47
2022-08-24T16:04:09.200Z,6.80
2022-08-24T16:06:47.660Z,4.43
2022-08-24T16:09:32.661Z,8.43
2022-08-24T16:12:14.001Z,5.55
2022-08-24T16:14:47.323Z,6.60
2022-08-24T16:17:39.670Z,5.40
2022-08-24T16:20:14.622Z,5.45
2022-08-24T16:22:54.470Z,5.05
2022-08-24T16:25:34.764Z,4.95
2022-08-24T16:28:23.159Z,9.15
2022-08-24T16:31:00.830Z,5.05
2022-08-24T16:33:44.441Z,8.00
2022-08-24T16:36:14.855Z,5.55
2022-08-24T16:38:48.321Z,7.18
2022-08-24T16:41:21.156Z,5.53
2022-08-24T16:43:48.681Z,4.85
2022-08-24T16:46:20.692Z,5.38
2022-08-24T16:48:47.390Z,4.22
2022-08-24T16:51:13.988Z,4.95
2022-08-24T16:53:40.604Z,7.18
2022-08-24T16:56:08.783Z,5.35
2022-08-24T16:58:35.857Z,7.53
2022-08-24T17:01:03.072Z,4.90
2022-08-24T17:03:30.018Z,7.57
2022-08-24T17:05:57.346Z,4.93
2022-08-24T17:08:26.176Z,7.80
2022-08-24T17:10:52.913Z,6.00
2022-08-24T17:13:46.073Z,6.88
2022-08-24T17:16:07.136Z,6.05
2022-08-24T17:18:34.177Z,7.25
2022-08-24T17:21:01.317Z,5.67
2022-08-24T17:23:28.004Z,6.00
2022-08-24T17:25:54.654Z,7.00
2022-08-24T17:28:21.379Z,4.40
2022-08-24T17:30:51.365Z,6.13
2022-08-24T17:33:18.588Z,5.73
2022-08-24T17:35:45.311Z,5.70
2022-08-24T17:38:12.078Z,4.67
2022-08-24T17:40:38.686Z,7.10
2022-08-24T17:43:05.524Z,4.70
2022-08-24T17:45:32.371Z,6.37
2022-08-24T17:47:59.020Z,7.03
2022-08-24T17:50:26.647Z,5.50
2022-08-24T17:52:58.920Z,7.03
2022-08-24T17:55:27.804Z,4.30
2022-08-24T17:57:54.426Z,5.80
2022-08-24T18:00:21.144Z,6.03
2022-08-24T18:02:47.725Z,6.40
2022-08-24T18:05:14.850Z,6.90
2022-08-24T18:07:55.647Z,7.33
2022-08-24T18:10:28.037Z,4.90
2022-08-24T18:12:57.808Z,5.27
2022-08-24T18:15:34.823Z,7.47
2022-08-24T18:18:07.848Z,6.63
2022-08-24T18:20:37.710Z,5.33
2022-08-24T18:23:04.415Z,5.67
2022-08-24T18:25:35.978Z,4.40
2022-08-24T18:28:03.052Z,5.37
2022-08-24T18:30:31.963Z,6.10
2022-08-24T18:33:01.781Z,5.10
2022-08-24T18:35:30.612Z,6.13
2022-08-24T18:37:57.315Z,5.53
2022-08-24T18:40:27.051Z,5.70
2022-08-24T18:43:00.076Z,5.17
2022-08-24T18:45:31.214Z,5.40
2022-08-24T18:47:58.562Z,6.10
2022-08-24T18:50:28.272Z,7.30
2022-08-24T18:52:56.288Z,5.97
2022-08-24T18:55:24.175Z,7.33
2022-08-24T18:57:51.816Z,6.10
2022-08-24T19:00:18.773Z,6.70
2022-08-24T19:02:45.729Z,8.77
2022-08-24T19:05:20.079Z,9.10
2022-08-24T19:07:49.893Z,8.03
2022-08-24T19:10:20.715Z,9.83
2022-08-24T19:12:54.978Z,12.30
2022-08-24T19:15:31.989Z,9.70
2022-08-24T19:18:07.137Z,7.30
2022-08-24T19:20:35.325Z,7.17
2022-08-24T19:23:08.438Z,9.13
2022-08-24T19:25:37.320Z,8.23
2022-08-24T19:28:06.417Z,8.00
2022-08-24T19:30:33.037Z,9.07
2022-08-24T19:33:00.569Z,10.97
2022-08-24T19:35:27.818Z,6.87
2022-08-24T19:37:54.489Z,11.00
2022-08-24T19:40:21.202Z,7.63
2022-08-24T19:42:50.850Z,7.13
2022-08-24T19:45:40.833Z,7.43
2022-08-24T19:48:07.745Z,7.50
2022-08-24T19:50:35.978Z,7.70
2022-08-24T19:53:04.657Z,9.97
2022-08-24T19:55:32.616Z,8.13
2022-08-24T19:58:29.709Z,8.13
2022-08-24T20:01:01.675Z,10.33
2022-08-24T20:03:28.448Z,10.13
2022-08-24T20:05:55.070Z,8.03
2022-08-24T20:08:21.893Z,9.30
2022-08-24T20:10:49.634Z,7.33
2022-08-24T20:13:16.606Z,6.87
2022-08-24T20:15:43.613Z,7.83
2022-08-24T20:18:10.622Z,7.30
2022-08-24T20:20:37.491Z,7.43
2022-08-24T20:23:06.346Z,9.63
2022-08-24T20:25:37.385Z,10.20
2022-08-24T20:28:28.161Z,11.00
2022-08-24T20:30:52.837Z,8.60
2022-08-24T20:33:23.717Z,10.70
2022-08-24T20:35:50.931Z,10.60
2022-08-24T20:38:20.361Z,9.10
2022-08-24T20:40:47.977Z,11.07
2022-08-24T20:43:14.767Z,8.40
2022-08-24T20:45:41.788Z,9.90
2022-08-24T20:48:12.150Z,9.10
2022-08-24T20:50:39.422Z,9.97
2022-08-24T20:53:09.034Z,8.47
2022-08-24T20:55:38.706Z,12.57
2022-08-24T20:58:05.361Z,8.33
2022-08-24T21:00:32.081Z,9.03
2022-08-24T21:02:58.837Z,9.07
2022-08-24T21:05:25.466Z,8.47
2022-08-24T21:07:52.170Z,9.83
2022-08-24T21:10:24.933Z,9.07
2022-08-24T21:12:53.681Z,9.13
2022-08-24T21:15:22.406Z,10.60
2022-08-24T21:17:49.377Z,10.67
2022-08-24T21:20:16.506Z,8.13
2022-08-24T21:22:45.917Z,7.83
2022-08-24T21:25:14.353Z,7.77
2022-08-24T21:27:43.925Z,8.90
2022-08-24T21:30:20.570Z,8.87
2022-08-24T21:33:06.342Z,7.27
2022-08-24T21:35:34.703Z,6.60
2022-08-24T21:38:01.837Z,9.57
2022-08-24T21:40:29.327Z,7.27
2022-08-24T21:42:56.344Z,8.50
2022-08-24T21:45:24.109Z,10.53
2022-08-24T21:47:50.757Z,7.57
2022-08-24T21:50:18.590Z,7.43
2022-08-24T21:52:47.270Z,9.43
2022-08-24T21:55:19.465Z,7.00
2022-08-24T21:57:46.045Z,8.87
2022-08-24T22:00:18.485Z,7.93
2022-08-24T22:02:45.922Z,7.43
2022-08-24T22:05:12.652Z,7.20
2022-08-24T22:07:39.253Z,9.47
2022-08-24T22:10:08.023Z,7.40
2022-08-24T22:12:35.971Z,7.47
2022-08-24T22:15:05.368Z,7.20
2022-08-24T22:17:31.967Z,8.60
2022-08-24T22:19:58.637Z,7.60
2022-08-24T22:22:25.396Z,7.30
2022-08-24T22:24:52.113Z,7.00
2022-08-24T22:27:18.701Z,6.73
2022-08-24T22:29:48.390Z,9.00
2022-08-24T22:32:17.269Z,6.13
2022-08-24T22:34:43.863Z,9.77
2022-08-24T22:37:10.454Z,6.27
2022-08-24T22:39:37.054Z,6.37
2022-08-24T22:42:04.503Z,8.87
2022-08-24T22:44:32.185Z,7.43
2022-08-24T22:47:00.766Z,10.33
2022-08-24T22:49:30.638Z,11.20
2022-08-24T22:51:57.907Z,7.43
2022-08-24T22:54:25.514Z,7.63
2022-08-24T22:56:53.829Z,7.67
2022-08-24T22:59:25.394Z,5.87
2022-08-24T23:01:54.472Z,8.03
2022-08-24T23:04:27.025Z,6.83
2022-08-24T23:06:54.904Z,7.03
2022-08-24T23:09:21.857Z,6.73
2022-08-24T23:11:48.530Z,6.67
2022-08-24T23:14:15.753Z,8.13
2022-08-24T23:16:49.798Z,9.33
2022-08-24T23:19:36.946Z,7.67
2022-08-24T23:22:05.087Z,7.70
2022-08-24T23:24:32.511Z,8.67
2022-08-24T23:26:59.471Z,6.97
2022-08-24T23:29:26.081Z,9.93
2022-08-24T23:31:53.841Z,8.07
2022-08-24T23:34:22.154Z,6.73
2022-08-24T23:36:49.988Z,6.97
2022-08-24T23:39:17.635Z,6.67
2022-08-24T23:41:46.462Z,7.67
2022-08-24T23:44:16.339Z,8.00
2022-08-24T23:46:44.259Z,7.43
2022-08-24T23:49:12.626Z,8.20
2022-08-24T23:51:39.329Z,7.00
2022-08-24T23:54:07.183Z,8.37
2022-08-24T23:56:36.935Z,7.00
2022-08-24T23:59:07.057Z,7.07
